sensor_id;sensor_type;location;lat;lon;timestamp;pressure;altitude;pressure_sealevel;temperature;humidity
77161;BME280;66135;0.000;0.000;2024-02-14T08:16:17;101435.13;;;18.10;61.21
77161;BME280;66135;0.000;0.000;2024-02-14T08:18:42;101435.97;;;18.11;61.11
77161;BME280;66135;0.000;0.000;2024-02-14T08:21:09;101429.41;;;18.13;61.41
77161;BME280;66135;0.000;0.000;2024-02-14T08:23:36;101432.78;;;18.15;61.39
77161;BME280;66135;0.000;0.000;2024-02-14T08:26:04;101435.19;;;18.18;61.56
77161;BME280;66135;0.000;0.000;2024-02-14T08:28:35;101430.44;;;18.20;61.61
77161;BME280;66135;0.000;0.000;2024-02-14T08:31:01;101431.13;;;18.22;61.75
77161;BME280;66135;0.000;0.000;2024-02-14T08:33:26;101438.09;;;18.25;61.92
77161;BME280;66135;0.000;0.000;2024-02-14T08:35:52;101435.22;;;18.26;62.08
77161;BME280;66135;0.000;0.000;2024-02-14T08:38:19;101446.75;;;18.28;61.96
77161;BME280;66135;0.000;0.000;2024-02-14T08:40:45;101435.91;;;18.28;62.16
77161;BME280;66135;0.000;0.000;2024-02-14T08:43:10;101441.34;;;18.28;61.86
77161;BME280;66135;0.000;0.000;2024-02-14T08:45:36;101443.03;;;18.29;62.04
77161;BME280;66135;0.000;0.000;2024-02-14T08:48:02;101451.00;;;18.31;62.04
77161;BME280;66135;0.000;0.000;2024-02-14T08:50:28;101444.59;;;18.32;62.16
77161;BME280;66135;0.000;0.000;2024-02-14T08:52:55;101446.09;;;18.34;62.22
77161;BME280;66135;0.000;0.000;2024-02-14T08:55:20;101444.09;;;18.36;61.98
77161;BME280;66135;0.000;0.000;2024-02-14T08:57:46;101449.22;;;18.39;62.24
77161;BME280;66135;0.000;0.000;2024-02-14T09:00:13;101441.75;;;18.41;62.11
77161;BME280;66135;0.000;0.000;2024-02-14T09:02:43;101447.19;;;18.41;62.14
77161;BME280;66135;0.000;0.000;2024-02-14T09:05:09;101453.31;;;18.43;62.19
77161;BME280;66135;0.000;0.000;2024-02-14T09:07:35;101449.59;;;18.44;62.30
77161;BME280;66135;0.000;0.000;2024-02-14T09:10:01;101457.75;;;18.44;62.06
77161;BME280;66135;0.000;0.000;2024-02-14T09:12:27;101454.88;;;18.46;62.21
77161;BME280;66135;0.000;0.000;2024-02-14T09:14:52;101473.69;;;18.47;62.42
77161;BME280;66135;0.000;0.000;2024-02-14T09:17:18;101480.81;;;18.48;62.15
77161;BME280;66135;0.000;0.000;2024-02-14T09:19:43;101475.38;;;18.48;62.34
77161;BME280;66135;0.000;0.000;2024-02-14T09:22:09;101486.22;;;18.48;62.31
77161;BME280;66135;0.000;0.000;2024-02-14T09:24:34;101482.69;;;18.48;62.22
77161;BME280;66135;0.000;0.000;2024-02-14T09:27:00;101482.53;;;18.49;62.39
77161;BME280;66135;0.000;0.000;2024-02-14T09:29:27;101476.22;;;18.49;62.21
77161;BME280;66135;0.000;0.000;2024-02-14T09:31:53;101474.38;;;18.49;62.17
77161;BME280;66135;0.000;0.000;2024-02-14T09:34:18;101471.66;;;18.49;62.32
77161;BME280;66135;0.000;0.000;2024-02-14T09:36:47;101473.34;;;18.50;62.53
77161;BME280;66135;0.000;0.000;2024-02-14T09:39:14;101470.47;;;18.52;62.48
77161;BME280;66135;0.000;0.000;2024-02-14T09:41:44;101487.63;;;18.52;62.35
77161;BME280;66135;0.000;0.000;2024-02-14T09:44:12;101491.34;;;18.51;62.43
77161;BME280;66135;0.000;0.000;2024-02-14T09:46:38;101499.50;;;18.51;62.21
77161;BME280;66135;0.000;0.000;2024-02-14T09:49:05;101496.78;;;18.51;62.24
77161;BME280;66135;0.000;0.000;2024-02-14T09:51:31;101495.06;;;18.50;61.87
77161;BME280;66135;0.000;0.000;2024-02-14T09:54:01;101504.91;;;18.51;61.89
77161;BME280;66135;0.000;0.000;2024-02-14T09:56:28;101489.47;;;18.52;62.04
77161;BME280;66135;0.000;0.000;2024-02-14T09:58:54;101494.06;;;18.51;61.79
77161;BME280;66135;0.000;0.000;2024-02-14T10:01:23;101495.75;;;18.52;61.94
77161;BME280;66135;0.000;0.000;2024-02-14T10:03:53;101495.59;;;18.54;61.80
77161;BME280;66135;0.000;0.000;2024-02-14T10:06:19;101497.31;;;18.55;62.02
77161;BME280;66135;0.000;0.000;2024-02-14T10:08:46;101489.00;;;18.56;61.98
77161;BME280;66135;0.000;0.000;2024-02-14T10:11:13;101493.41;;;18.57;62.13
77161;BME280;66135;0.000;0.000;2024-02-14T10:13:41;101493.41;;;18.57;62.12
77161;BME280;66135;0.000;0.000;2024-02-14T10:16:06;101491.53;;;18.58;62.12
77161;BME280;66135;0.000;0.000;2024-02-14T10:18:33;101496.97;;;18.58;62.50
77161;BME280;66135;0.000;0.000;2024-02-14T10:20:59;101496.81;;;18.59;62.36
77161;BME280;66135;0.000;0.000;2024-02-14T10:23:24;101497.66;;;18.60;62.69
77161;BME280;66135;0.000;0.000;2024-02-14T10:25:57;101502.06;;;18.61;62.49
77161;BME280;66135;0.000;0.000;2024-02-14T10:28:23;101492.94;;;18.62;62.64
77161;BME280;66135;0.000;0.000;2024-02-14T10:30:49;101509.06;;;18.63;62.53
77161;BME280;66135;0.000;0.000;2024-02-14T10:33:17;101506.34;;;18.63;62.48
77161;BME280;66135;0.000;0.000;2024-02-14T10:35:44;101507.16;;;18.64;62.75
77161;BME280;66135;0.000;0.000;2024-02-14T10:38:11;101507.16;;;18.64;62.70
77161;BME280;66135;0.000;0.000;2024-02-14T10:40:37;101508.88;;;18.65;62.95
77161;BME280;66135;0.000;0.000;2024-02-14T10:43:08;101507.16;;;18.64;62.79
77161;BME280;66135;0.000;0.000;2024-02-14T10:45:36;101505.16;;;18.66;62.74
77161;BME280;66135;0.000;0.000;2024-02-14T10:48:03;101514.16;;;18.66;62.61
77161;BME280;66135;0.000;0.000;2024-02-14T10:50:32;101513.13;;;18.67;62.74
77161;BME280;66135;0.000;0.000;2024-02-14T10:53:00;101521.25;;;18.67;62.79
77161;BME280;66135;0.000;0.000;2024-02-14T10:55:30;101514.84;;;18.68;62.60
77161;BME280;66135;0.000;0.000;2024-02-14T10:57:57;101516.84;;;18.66;62.66
77161;BME280;66135;0.000;0.000;2024-02-14T11:00:24;101511.44;;;18.66;62.74
77161;BME280;66135;0.000;0.000;2024-02-14T11:02:50;101512.28;;;18.67;62.70
77161;BME280;66135;0.000;0.000;2024-02-14T11:05:19;101517.72;;;18.67;62.68
77161;BME280;66135;0.000;0.000;2024-02-14T11:07:47;101513.81;;;18.69;62.86
77161;BME280;66135;0.000;0.000;2024-02-14T11:10:16;101521.94;;;18.69;62.92
77161;BME280;66135;0.000;0.000;2024-02-14T11:12:41;101517.38;;;18.70;62.99
77161;BME280;66135;0.000;0.000;2024-02-14T11:15:20;101514.66;;;18.70;63.08
77161;BME280;66135;0.000;0.000;2024-02-14T11:17:47;101512.97;;;18.69;62.73
77161;BME280;66135;0.000;0.000;2024-02-14T11:20:18;101507.22;;;18.72;62.57
77161;BME280;66135;0.000;0.000;2024-02-14T11:23:03;101506.72;;;18.76;62.57
77161;BME280;66135;0.000;0.000;2024-02-14T11:25:31;101504.16;;;18.75;62.73
77161;BME280;66135;0.000;0.000;2024-02-14T11:27:58;101503.16;;;18.76;62.75
77161;BME280;66135;0.000;0.000;2024-02-14T11:30:33;101500.28;;;18.77;62.78
77161;BME280;66135;0.000;0.000;2024-02-14T11:35:41;101489.78;;;18.82;63.03
77161;BME280;66135;0.000;0.000;2024-02-14T11:38:07;101493.19;;;18.84;63.29
77161;BME280;66135;0.000;0.000;2024-02-14T11:40:32;101494.03;;;18.85;63.28
77161;BME280;66135;0.000;0.000;2024-02-14T11:42:57;101491.47;;;18.83;63.11
77161;BME280;66135;0.000;0.000;2024-02-14T11:45:23;101497.78;;;18.84;63.15
77161;BME280;66135;0.000;0.000;2024-02-14T11:47:48;101490.16;;;18.87;63.09
77161;BME280;66135;0.000;0.000;2024-02-14T11:50:14;101485.25;;;18.91;63.06
77161;BME280;66135;0.000;0.000;2024-02-14T11:52:39;101484.03;;;18.93;62.78
77161;BME280;66135;0.000;0.000;2024-02-14T11:55:05;101487.63;;;18.94;63.12
77161;BME280;66135;0.000;0.000;2024-02-14T11:57:31;101478.78;;;18.92;63.15
77161;BME280;66135;0.000;0.000;2024-02-14T11:59:57;101476.06;;;18.92;63.47
77161;BME280;66135;0.000;0.000;2024-02-14T12:02:23;101475.25;;;18.91;63.32
77161;BME280;66135;0.000;0.000;2024-02-14T12:04:48;101475.25;;;18.91;63.37
77161;BME280;66135;0.000;0.000;2024-02-14T12:07:15;101478.94;;;18.90;63.63
77161;BME280;66135;0.000;0.000;2024-02-14T12:09:43;101477.97;;;18.91;63.43
77161;BME280;66135;0.000;0.000;2024-02-14T12:12:08;101478.78;;;18.92;63.30
77161;BME280;66135;0.000;0.000;2024-02-14T12:14:34;101469.81;;;18.91;63.22
77161;BME280;66135;0.000;0.000;2024-02-14T12:17:00;101478.78;;;18.92;63.53
77161;BME280;66135;0.000;0.000;2024-02-14T12:19:28;101477.97;;;18.91;63.68
77161;BME280;66135;0.000;0.000;2024-02-14T12:21:54;101467.09;;;18.91;63.44
77161;BME280;66135;0.000;0.000;2024-02-14T12:24:21;101470.63;;;18.92;63.41
77161;BME280;66135;0.000;0.000;2024-02-14T12:26:48;101460.81;;;18.91;63.49
77161;BME280;66135;0.000;0.000;2024-02-14T12:29:14;101469.81;;;18.91;63.53
77161;BME280;66135;0.000;0.000;2024-02-14T12:31:39;101466.25;;;18.91;63.46
77161;BME280;66135;0.000;0.000;2024-02-14T12:34:04;101466.06;;;18.92;63.69
77161;BME280;66135;0.000;0.000;2024-02-14T12:36:30;101472.53;;;18.91;63.67
77161;BME280;66135;0.000;0.000;2024-02-14T12:38:56;101460.81;;;18.91;63.63
77161;BME280;66135;0.000;0.000;2024-02-14T12:41:21;101469.81;;;18.91;63.79
77161;BME280;66135;0.000;0.000;2024-02-14T12:43:51;101465.38;;;18.90;63.43
77161;BME280;66135;0.000;0.000;2024-02-14T12:46:17;101462.50;;;18.92;63.49
77161;BME280;66135;0.000;0.000;2024-02-14T12:48:42;101461.66;;;18.91;63.25
77161;BME280;66135;0.000;0.000;2024-02-14T12:51:08;101452.66;;;18.91;63.58
77161;BME280;66135;0.000;0.000;2024-02-14T12:53:34;101448.09;;;18.91;63.64
77161;BME280;66135;0.000;0.000;2024-02-14T12:55:59;101479.66;;;18.92;63.58
77161;BME280;66135;0.000;0.000;2024-02-14T12:58:25;101478.78;;;18.92;63.40
77161;BME280;66135;0.000;0.000;2024-02-14T13:00:50;101467.09;;;18.91;63.52
77161;BME280;66135;0.000;0.000;2024-02-14T13:03:16;101469.81;;;18.91;63.62
77161;BME280;66135;0.000;0.000;2024-02-14T13:05:41;101468.78;;;18.92;63.41
77161;BME280;66135;0.000;0.000;2024-02-14T13:08:07;101468.78;;;18.92;63.44
77161;BME280;66135;0.000;0.000;2024-02-14T13:10:34;101467.91;;;18.92;63.44
77161;BME280;66135;0.000;0.000;2024-02-14T13:12:59;101465.38;;;18.90;62.90
77161;BME280;66135;0.000;0.000;2024-02-14T13:15:25;101457.91;;;18.92;63.35
77161;BME280;66135;0.000;0.000;2024-02-14T13:17:51;101465.03;;;18.93;63.55
77161;BME280;66135;0.000;0.000;2024-02-14T13:20:16;101462.31;;;18.93;63.44
77161;BME280;66135;0.000;0.000;2024-02-14T13:22:41;101461.66;;;18.91;63.27
77161;BME280;66135;0.000;0.000;2024-02-14T13:25:10;101464.38;;;18.91;63.41
77161;BME280;66135;0.000;0.000;2024-02-14T13:27:35;101468.78;;;18.92;62.87
77161;BME280;66135;0.000;0.000;2024-02-14T13:30:04;101460.81;;;18.91;63.36
77161;BME280;66135;0.000;0.000;2024-02-14T13:32:30;101457.91;;;18.92;63.26
77161;BME280;66135;0.000;0.000;2024-02-14T13:34:55;101445.38;;;18.91;63.22
77161;BME280;66135;0.000;0.000;2024-02-14T13:37:21;101465.22;;;18.92;63.46
77161;BME280;66135;0.000;0.000;2024-02-14T13:39:47;101467.91;;;18.92;63.52
77161;BME280;66135;0.000;0.000;2024-02-14T13:42:12;101467.09;;;18.91;62.95
77161;BME280;66135;0.000;0.000;2024-02-14T13:44:38;101454.34;;;18.92;63.43
77161;BME280;66135;0.000;0.000;2024-02-14T13:47:03;101458.78;;;18.93;63.46
77161;BME280;66135;0.000;0.000;2024-02-14T13:49:29;101451.63;;;18.92;63.10
77161;BME280;66135;0.000;0.000;2024-02-14T13:51:54;101451.63;;;18.92;63.22
77161;BME280;66135;0.000;0.000;2024-02-14T13:54:21;101459.59;;;18.93;63.06
77161;BME280;66135;0.000;0.000;2024-02-14T13:56:49;101460.63;;;18.92;63.17
77161;BME280;66135;0.000;0.000;2024-02-14T13:59:15;101455.91;;;18.94;63.26
77161;BME280;66135;0.000;0.000;2024-02-14T14:01:41;101453.34;;;18.93;63.09
77161;BME280;66135;0.000;0.000;2024-02-14T14:04:07;101453.34;;;18.93;63.64
77161;BME280;66135;0.000;0.000;2024-02-14T14:06:32;101450.63;;;18.93;63.39
77161;BME280;66135;0.000;0.000;2024-02-14T14:08:58;101450.63;;;18.93;63.20
77161;BME280;66135;0.000;0.000;2024-02-14T14:11:24;101449.94;;;18.91;63.01
77161;BME280;66135;0.000;0.000;2024-02-14T14:13:50;101441.81;;;18.91;63.14
77161;BME280;66135;0.000;0.000;2024-02-14T14:16:15;101447.22;;;18.91;63.20
77161;BME280;66135;0.000;0.000;2024-02-14T14:18:41;101433.81;;;18.89;63.16
77161;BME280;66135;0.000;0.000;2024-02-14T14:21:06;101441.13;;;18.89;63.35
77161;BME280;66135;0.000;0.000;2024-02-14T14:23:32;101437.38;;;18.90;63.41
77161;BME280;66135;0.000;0.000;2024-02-14T14:25:58;101432.97;;;18.89;63.29
77161;BME280;66135;0.000;0.000;2024-02-14T14:28:24;101441.13;;;18.89;63.23
77161;BME280;66135;0.000;0.000;2024-02-14T14:30:56;101430.25;;;18.89;63.11
77161;BME280;66135;0.000;0.000;2024-02-14T14:33:22;101432.97;;;18.89;63.22
77161;BME280;66135;0.000;0.000;2024-02-14T14:35:47;101434.81;;;18.88;63.41
77161;BME280;66135;0.000;0.000;2024-02-14T14:38:18;101434.66;;;18.90;63.17
77161;BME280;66135;0.000;0.000;2024-02-14T14:40:44;101432.13;;;18.88;63.17
77161;BME280;66135;0.000;0.000;2024-02-14T14:43:11;101433.13;;;18.87;63.31
77161;BME280;66135;0.000;0.000;2024-02-14T14:45:37;101434.81;;;18.88;63.16
77161;BME280;66135;0.000;0.000;2024-02-14T14:48:04;101431.13;;;18.89;63.24
77161;BME280;66135;0.000;0.000;2024-02-14T14:50:29;101433.66;;;18.91;63.38
77161;BME280;66135;0.000;0.000;2024-02-14T14:52:56;101439.56;;;18.86;63.27
77161;BME280;66135;0.000;0.000;2024-02-14T14:55:22;101448.22;;;18.90;63.35
77161;BME280;66135;0.000;0.000;2024-02-14T14:57:47;101436.53;;;18.89;63.36
77161;BME280;66135;0.000;0.000;2024-02-14T15:00:13;101441.97;;;18.89;63.03
77161;BME280;66135;0.000;0.000;2024-02-14T15:02:42;101442.97;;;18.88;62.86
77161;BME280;66135;0.000;0.000;2024-02-14T15:05:11;101445.84;;;18.87;63.13
77161;BME280;66135;0.000;0.000;2024-02-14T15:07:38;101450.41;;;18.86;63.11
77161;BME280;66135;0.000;0.000;2024-02-14T15:10:04;101441.44;;;18.86;63.02
77161;BME280;66135;0.000;0.000;2024-02-14T15:12:30;101444.16;;;18.86;62.96
77161;BME280;66135;0.000;0.000;2024-02-14T15:14:55;101438.56;;;18.87;63.05
77161;BME280;66135;0.000;0.000;2024-02-14T15:17:21;101441.28;;;18.87;62.84
77161;BME280;66135;0.000;0.000;2024-02-14T15:19:48;101443.66;;;18.90;62.97
77161;BME280;66135;0.000;0.000;2024-02-14T15:22:13;101436.38;;;18.91;62.93
77161;BME280;66135;0.000;0.000;2024-02-14T15:24:39;101441.63;;;18.92;63.05
77161;BME280;66135;0.000;0.000;2024-02-14T15:27:08;101443.31;;;18.93;62.96
77161;BME280;66135;0.000;0.000;2024-02-14T15:29:36;101439.59;;;18.94;62.95
77161;BME280;66135;0.000;0.000;2024-02-14T15:32:20;101445.03;;;18.94;62.76
77161;BME280;66135;0.000;0.000;2024-02-14T15:35:04;101452.31;;;18.94;62.80
77161;BME280;66135;0.000;0.000;2024-02-14T15:37:29;101451.31;;;18.95;63.16
77161;BME280;66135;0.000;0.000;2024-02-14T15:39:55;101449.78;;;18.92;62.92
77161;BME280;66135;0.000;0.000;2024-02-14T15:42:20;101443.19;;;18.95;63.05
77161;BME280;66135;0.000;0.000;2024-02-14T15:44:46;101452.16;;;18.95;62.95
77161;BME280;66135;0.000;0.000;2024-02-14T15:47:11;101454.88;;;18.95;63.05
77161;BME280;66135;0.000;0.000;2024-02-14T15:49:37;101461.16;;;18.96;63.27
77161;BME280;66135;0.000;0.000;2024-02-14T15:52:02;101462.19;;;18.95;62.87
77161;BME280;66135;0.000;0.000;2024-02-14T15:54:28;101458.44;;;18.96;63.34
77161;BME280;66135;0.000;0.000;2024-02-14T15:56:53;101456.75;;;18.95;63.07
77161;BME280;66135;0.000;0.000;2024-02-14T15:59:19;101452.16;;;18.95;62.96
77161;BME280;66135;0.000;0.000;2024-02-14T16:01:44;101444.00;;;18.95;63.23
77161;BME280;66135;0.000;0.000;2024-02-14T16:04:09;101444.19;;;18.94;63.08
77161;BME280;66135;0.000;0.000;2024-02-14T16:06:35;101455.03;;;18.94;63.16
77161;BME280;66135;0.000;0.000;2024-02-14T16:09:03;101456.91;;;18.93;63.18
77161;BME280;66135;0.000;0.000;2024-02-14T16:11:30;101451.31;;;18.95;63.31
77161;BME280;66135;0.000;0.000;2024-02-14T16:13:56;101451.31;;;18.95;63.31
77161;BME280;66135;0.000;0.000;2024-02-14T16:16:21;101452.16;;;18.95;63.24
77161;BME280;66135;0.000;0.000;2024-02-14T16:18:47;101444.88;;;18.96;63.17
77161;BME280;66135;0.000;0.000;2024-02-14T16:21:12;101458.44;;;18.96;63.16
77161;BME280;66135;0.000;0.000;2024-02-14T16:23:37;101464.72;;;18.96;63.26
77161;BME280;66135;0.000;0.000;2024-02-14T16:26:02;101460.47;;;18.94;63.38
77161;BME280;66135;0.000;0.000;2024-02-14T16:28:29;101462.31;;;18.93;63.47
77161;BME280;66135;0.000;0.000;2024-02-14T16:30:54;101458.78;;;18.93;63.42
77161;BME280;66135;0.000;0.000;2024-02-14T16:33:19;101456.06;;;18.93;63.21
77161;BME280;66135;0.000;0.000;2024-02-14T16:35:45;101456.91;;;18.93;63.29
77161;BME280;66135;0.000;0.000;2024-02-14T16:38:10;101454.19;;;18.93;63.06
77161;BME280;66135;0.000;0.000;2024-02-14T16:40:35;101451.47;;;18.93;63.25
77161;BME280;66135;0.000;0.000;2024-02-14T16:43:01;101448.75;;;18.93;63.29
77161;BME280;66135;0.000;0.000;2024-02-14T16:45:26;101449.44;;;18.95;63.18
77161;BME280;66135;0.000;0.000;2024-02-14T16:47:52;101446.72;;;18.95;63.06
77161;BME280;66135;0.000;0.000;2024-02-14T16:50:17;101447.59;;;18.96;63.05
77161;BME280;66135;0.000;0.000;2024-02-14T16:52:43;101447.75;;;18.94;63.33
77161;BME280;66135;0.000;0.000;2024-02-14T16:55:09;101448.09;;;18.99;63.13
77161;BME280;66135;0.000;0.000;2024-02-14T16:57:35;101449.78;;;19.00;63.07
77161;BME280;66135;0.000;0.000;2024-02-14T17:00:00;101447.25;;;18.99;63.32
77161;BME280;66135;0.000;0.000;2024-02-14T17:02:25;101446.94;;;19.02;63.30
77161;BME280;66135;0.000;0.000;2024-02-14T17:04:51;101443.19;;;19.03;63.30
77161;BME280;66135;0.000;0.000;2024-02-14T17:07:16;101442.03;;;19.05;64.67
77161;BME280;66135;0.000;0.000;2024-02-14T17:09:41;101438.63;;;19.12;66.19
77161;BME280;66135;0.000;0.000;2024-02-14T17:12:08;101435.56;;;19.15;66.87
77161;BME280;66135;0.000;0.000;2024-02-14T17:14:34;101425.22;;;19.18;66.74
77161;BME280;66135;0.000;0.000;2024-02-14T17:16:59;101422.31;;;19.20;66.84
77161;BME280;66135;0.000;0.000;2024-02-14T17:19:25;101436.28;;;19.25;66.86
77161;BME280;66135;0.000;0.000;2024-02-14T17:21:50;101449.69;;;19.26;66.70
77161;BME280;66135;0.000;0.000;2024-02-14T17:24:16;101471.41;;;19.26;66.28
77161;BME280;66135;0.000;0.000;2024-02-14T17:26:41;101475.13;;;19.25;65.86
77161;BME280;66135;0.000;0.000;2024-02-14T17:29:07;101486.88;;;19.26;65.40
77161;BME280;66135;0.000;0.000;2024-02-14T17:31:33;101488.41;;;19.28;65.58
77161;BME280;66135;0.000;0.000;2024-02-14T17:34:02;101494.53;;;19.30;65.29
77161;BME280;66135;0.000;0.000;2024-02-14T17:36:28;101506.25;;;19.31;65.18
77161;BME280;66135;0.000;0.000;2024-02-14T17:38:54;101508.63;;;19.34;65.33
77161;BME280;66135;0.000;0.000;2024-02-14T17:41:26;101507.47;;;19.36;65.42
77161;BME280;66135;0.000;0.000;2024-02-14T17:43:52;101511.88;;;19.37;65.23
77161;BME280;66135;0.000;0.000;2024-02-14T17:46:18;101511.69;;;19.39;65.29
77161;BME280;66135;0.000;0.000;2024-02-14T17:48:45;101515.09;;;19.41;65.30
77161;BME280;66135;0.000;0.000;2024-02-14T17:51:11;101517.50;;;19.44;65.23
77161;BME280;66135;0.000;0.000;2024-02-14T17:53:37;101510.00;;;19.46;65.36
77161;BME280;66135;0.000;0.000;2024-02-14T17:56:03;101521.75;;;19.46;65.30
77161;BME280;66135;0.000;0.000;2024-02-14T17:58:28;101511.56;;;19.48;65.25
77161;BME280;66135;0.000;0.000;2024-02-14T18:00:55;101517.69;;;19.50;65.28
77161;BME280;66135;0.000;0.000;2024-02-14T18:03:21;101512.06;;;19.52;65.51
77161;BME280;66135;0.000;0.000;2024-02-14T18:05:46;101507.31;;;19.54;65.35
77161;BME280;66135;0.000;0.000;2024-02-14T18:08:12;101508.00;;;19.56;65.40
77161;BME280;66135;0.000;0.000;2024-02-14T18:10:37;101510.72;;;19.56;65.24
77161;BME280;66135;0.000;0.000;2024-02-14T18:13:03;101524.16;;;19.57;65.51
77161;BME280;66135;0.000;0.000;2024-02-14T18:15:29;101532.13;;;19.59;65.40
77161;BME280;66135;0.000;0.000;2024-02-14T18:17:54;101540.28;;;19.59;65.20
77161;BME280;66135;0.000;0.000;2024-02-14T18:20:20;101535.53;;;19.61;65.33
77161;BME280;66135;0.000;0.000;2024-02-14T18:22:45;101540.97;;;19.61;65.16
77161;BME280;66135;0.000;0.000;2024-02-14T18:25:11;101533.50;;;19.63;65.21
77161;BME280;66135;0.000;0.000;2024-02-14T18:27:37;101538.75;;;19.64;65.27
77161;BME280;66135;0.000;0.000;2024-02-14T18:30:03;101536.91;;;19.65;65.17
77161;BME280;66135;0.000;0.000;2024-02-14T18:32:29;101535.69;;;19.67;65.17
77161;BME280;66135;0.000;0.000;2024-02-14T18:34:54;101534.84;;;19.67;65.23
77161;BME280;66135;0.000;0.000;2024-02-14T18:37:20;101539.28;;;19.68;65.17
77161;BME280;66135;0.000;0.000;2024-02-14T18:39:45;101545.53;;;19.68;65.20
77161;BME280;66135;0.000;0.000;2024-02-14T18:42:10;101555.41;;;19.69;65.21
77161;BME280;66135;0.000;0.000;2024-02-14T18:44:36;101552.34;;;19.72;65.00
77161;BME280;66135;0.000;0.000;2024-02-14T18:47:02;101553.03;;;19.74;65.02
77161;BME280;66135;0.000;0.000;2024-02-14T18:49:29;101548.63;;;19.73;64.94
